Time;durP1;ratioP1;P1;durP2;ratioP2;P2;SDS_P1;SDS_P2;PMS_P1;PMS_P2;Temp;Humidity;BMP_temperature;BMP_pressure;BME280_temperature;BME280_humidity;BME280_pressure;Samples;Min_cycle;Max_cycle;Signal;HPM_P1;HPM_P2
2023/10/21 00:00:38;;;;;;;1.33;1.23;;;;;;;;;;5091754;28;20588;-85
2023/10/21 00:03:07;;;;;;;1.25;1.15;;;;;;;;;;5091897;28;20295;-85
2023/10/21 00:05:34;;;;;;;1.30;1.30;;;;;;;;;;5092106;28;20749;-86
2023/10/21 00:08:03;;;;;;;1.02;1.02;;;;;;;;;;5092080;28;20295;-85
2023/10/21 00:10:30;;;;;;;1.75;1.20;;;;;;;;;;5092223;28;20197;-86
2023/10/21 00:12:58;;;;;;;0.80;0.80;;;;;;;;;;5092714;28;20643;-86
2023/10/21 00:15:26;;;;;;;0.90;0.90;;;;;;;;;;5094538;28;20220;-84
2023/10/21 00:17:53;;;;;;;1.10;1.10;;;;;;;;;;5085886;28;20243;-85
2023/10/21 00:20:22;;;;;;;0.80;0.80;;;;;;;;;;5095031;28;20204;-84
2023/10/21 00:22:49;;;;;;;1.23;1.17;;;;;;;;;;5094954;28;20286;-84
2023/10/21 00:25:18;;;;;;;0.73;0.73;;;;;;;;;;5094322;28;20312;-85
2023/10/21 00:27:45;;;;;;;1.58;1.48;;;;;;;;;;5092722;28;20291;-84
2023/10/21 00:30:14;;;;;;;0.93;0.93;;;;;;;;;;5095569;28;20624;-84
2023/10/21 00:32:41;;;;;;;0.90;0.90;;;;;;;;;;5095290;28;20208;-85
2023/10/21 00:35:09;;;;;;;0.90;0.90;;;;;;;;;;5095164;28;20617;-85
2023/10/21 00:37:38;;;;;;;0.82;0.82;;;;;;;;;;5094963;28;20205;-85
2023/10/21 00:40:08;;;;;;;0.77;0.77;;;;;;;;;;5086552;28;20725;-86
2023/10/21 00:42:36;;;;;;;0.90;0.90;;;;;;;;;;5094832;28;20200;-85
2023/10/21 00:45:04;;;;;;;1.17;1.17;;;;;;;;;;5094954;28;20307;-84
2023/10/21 00:47:32;;;;;;;1.73;1.50;;;;;;;;;;5087751;28;20208;-85
2023/10/21 00:50:00;;;;;;;1.60;1.50;;;;;;;;;;5085842;28;20295;-84
2023/10/21 00:52:28;;;;;;;1.27;1.25;;;;;;;;;;5094943;28;20245;-84
2023/10/21 00:55:00;;;;;;;1.20;1.10;;;;;;;;;;5095190;28;20770;-85
2023/10/21 00:57:27;;;;;;;1.38;1.27;;;;;;;;;;5094989;28;20209;-85
2023/10/21 00:59:55;;;;;;;1.23;1.23;;;;;;;;;;5094500;28;20204;-85
2023/10/21 01:02:22;;;;;;;1.55;1.45;;;;;;;;;;5088627;28;20292;-85
2023/10/21 01:04:50;;;;;;;2.10;1.80;;;;;;;;;;5092163;28;20303;-85
2023/10/21 01:07:18;;;;;;;2.05;1.95;;;;;;;;;;5093939;28;20283;-84
2023/10/21 01:09:45;;;;;;;1.92;1.83;;;;;;;;;;5094798;28;20200;-84
2023/10/21 01:12:14;;;;;;;1.38;1.38;;;;;;;;;;5094693;28;20230;-85
2023/10/21 01:14:42;;;;;;;1.73;1.63;;;;;;;;;;5090578;28;20254;-85
2023/10/21 01:17:09;;;;;;;1.70;1.60;;;;;;;;;;5089521;28;20746;-86
2023/10/21 01:19:36;;;;;;;2.90;2.00;;;;;;;;;;5090004;28;20286;-84
2023/10/21 01:22:04;;;;;;;1.50;1.40;;;;;;;;;;5085794;28;20226;-85
2023/10/21 01:24:33;;;;;;;1.15;1.15;;;;;;;;;;5095430;28;20228;-85
2023/10/21 01:27:00;;;;;;;1.60;1.50;;;;;;;;;;5095705;28;20295;-85
2023/10/21 01:29:28;;;;;;;1.92;1.83;;;;;;;;;;5093637;28;20239;-84
2023/10/21 01:31:56;;;;;;;1.77;1.65;;;;;;;;;;5093395;28;20287;-85
2023/10/21 01:34:23;;;;;;;1.20;1.20;;;;;;;;;;5093334;28;20224;-85
2023/10/21 01:36:52;;;;;;;0.98;0.98;;;;;;;;;;5093296;28;20196;-85
2023/10/21 01:39:20;;;;;;;1.20;1.20;;;;;;;;;;5088487;28;20292;-84
2023/10/21 01:41:49;;;;;;;1.55;1.45;;;;;;;;;;5091679;28;20589;-85
2023/10/21 01:44:16;;;;;;;1.67;1.58;;;;;;;;;;5093557;28;20258;-84
2023/10/21 01:46:42;;;;;;;1.52;1.42;;;;;;;;;;5084743;28;20203;-85
2023/10/21 01:49:10;;;;;;;1.88;1.77;;;;;;;;;;5081891;28;20284;-84
2023/10/21 01:51:38;;;;;;;2.13;1.98;;;;;;;;;;5089971;28;20283;-86
2023/10/21 01:54:06;;;;;;;2.05;1.85;;;;;;;;;;5093517;28;20216;-86
2023/10/21 01:56:33;;;;;;;1.27;1.17;;;;;;;;;;5093697;28;20605;-85
2023/10/21 01:59:02;;;;;;;1.63;1.52;;;;;;;;;;5093127;28;20236;-85
2023/10/21 02:01:30;;;;;;;1.75;1.65;;;;;;;;;;5093424;28;20283;-85
2023/10/21 02:03:57;;;;;;;1.50;1.40;;;;;;;;;;5092811;28;20316;-85
2023/10/21 02:06:24;;;;;;;1.33;1.23;;;;;;;;;;5093158;28;20284;-84
2023/10/21 02:08:52;;;;;;;1.13;1.10;;;;;;;;;;5093024;28;20200;-85
2023/10/21 02:11:23;;;;;;;1.30;1.20;;;;;;;;;;5093371;28;20243;-85
2023/10/21 02:13:51;;;;;;;1.23;1.20;;;;;;;;;;5094531;28;20239;-85
2023/10/21 02:16:22;;;;;;;1.60;1.50;;;;;;;;;;5104909;28;20327;-84
2023/10/21 02:18:49;;;;;;;1.15;1.15;;;;;;;;;;5096000;28;20287;-84
2023/10/21 02:21:18;;;;;;;0.98;0.98;;;;;;;;;;5103169;28;20287;-85
2023/10/21 02:23:46;;;;;;;0.90;0.90;;;;;;;;;;5077716;28;20240;-85
2023/10/21 02:26:14;;;;;;;1.00;1.00;;;;;;;;;;5093838;28;20287;-85
2023/10/21 02:28:42;;;;;;;0.88;0.88;;;;;;;;;;5090654;28;20196;-85
2023/10/21 02:31:09;;;;;;;0.68;0.68;;;;;;;;;;5093996;28;20640;-86
2023/10/21 02:33:38;;;;;;;0.70;0.70;;;;;;;;;;5093661;28;20251;-84
2023/10/21 02:36:06;;;;;;;0.60;0.60;;;;;;;;;;5085664;28;20223;-85
2023/10/21 02:38:33;;;;;;;0.60;0.60;;;;;;;;;;5093523;28;20349;-85
2023/10/21 02:41:02;;;;;;;0.50;0.50;;;;;;;;;;5094010;28;20296;-85
2023/10/21 02:43:30;;;;;;;0.68;0.68;;;;;;;;;;5093471;28;20216;-85
2023/10/21 02:45:57;;;;;;;0.60;0.60;;;;;;;;;;5093894;28;20292;-84
2023/10/21 02:48:25;;;;;;;0.80;0.80;;;;;;;;;;5084746;28;20200;-84
2023/10/21 02:50:53;;;;;;;0.70;0.70;;;;;;;;;;5093568;28;20214;-84
2023/10/21 02:53:21;;;;;;;0.70;0.70;;;;;;;;;;5092766;28;20230;-84
2023/10/21 02:55:49;;;;;;;0.60;0.60;;;;;;;;;;5094291;28;20665;-85
2023/10/21 02:58:16;;;;;;;0.65;0.65;;;;;;;;;;5093642;28;20208;-85
2023/10/21 03:00:44;;;;;;;0.82;0.82;;;;;;;;;;5093483;28;20262;-84
2023/10/21 03:03:11;;;;;;;0.73;0.73;;;;;;;;;;5093378;28;20680;-84
2023/10/21 03:05:42;;;;;;;0.63;0.63;;;;;;;;;;5089195;28;20291;-85
2023/10/21 03:08:11;;;;;;;0.52;0.52;;;;;;;;;;5077210;28;20265;-84
2023/10/21 03:10:38;;;;;;;0.68;0.68;;;;;;;;;;5089284;28;20725;-85
2023/10/21 03:13:06;;;;;;;0.50;0.50;;;;;;;;;;5093175;28;20232;-82
2023/10/21 03:15:35;;;;;;;0.70;0.70;;;;;;;;;;5092875;28;20397;-84
2023/10/21 03:18:04;;;;;;;0.70;0.70;;;;;;;;;;5083877;28;20200;-84
2023/10/21 03:20:33;;;;;;;1.27;0.70;;;;;;;;;;5092616;28;20294;-84
2023/10/21 03:23:01;;;;;;;0.75;0.75;;;;;;;;;;5091994;28;20204;-85
2023/10/21 03:25:29;;;;;;;0.80;0.80;;;;;;;;;;5092156;28;20303;-84
2023/10/21 03:27:57;;;;;;;0.77;0.70;;;;;;;;;;5092225;28;20200;-85
2023/10/21 03:30:25;;;;;;;0.68;0.68;;;;;;;;;;5092301;28;20261;-86
2023/10/21 03:32:52;;;;;;;0.85;0.82;;;;;;;;;;5091467;28;20196;-84
2023/10/21 03:35:20;;;;;;;0.88;0.88;;;;;;;;;;5092055;28;20662;-85
2023/10/21 03:37:47;;;;;;;1.13;0.90;;;;;;;;;;5091861;28;20247;-84
2023/10/21 03:40:15;;;;;;;2.17;1.02;;;;;;;;;;5092285;28;20653;-84
2023/10/21 03:42:45;;;;;;;1.38;0.93;;;;;;;;;;5092088;28;20199;-84
2023/10/21 03:45:13;;;;;;;1.83;1.73;;;;;;;;;;5087721;28;20248;-84
2023/10/21 03:47:40;;;;;;;1.10;1.00;;;;;;;;;;5084300;28;20612;-85
2023/10/21 03:50:09;;;;;;;1.05;1.05;;;;;;;;;;5075429;28;20749;-85
2023/10/21 03:52:36;;;;;;;1.27;1.17;;;;;;;;;;5092065;28;20661;-83
2023/10/21 03:55:04;;;;;;;1.00;1.00;;;;;;;;;;5092414;28;20231;-84
2023/10/21 03:57:32;;;;;;;1.00;1.00;;;;;;;;;;5085896;28;20246;-83
2023/10/21 04:00:04;;;;;;;1.10;1.10;;;;;;;;;;5074826;28;20201;-84
2023/10/21 04:02:32;;;;;;;0.98;0.98;;;;;;;;;;5083134;28;20226;-84
2023/10/21 04:04:59;;;;;;;0.93;0.90;;;;;;;;;;5082757;28;20720;-84
2023/10/21 04:07:27;;;;;;;2.10;1.15;;;;;;;;;;5085774;28;20670;-85
2023/10/21 04:09:55;;;;;;;0.90;0.88;;;;;;;;;;5080117;28;20218;-83
2023/10/21 04:12:22;;;;;;;0.70;0.70;;;;;;;;;;5076651;28;20276;-83
2023/10/21 04:14:49;;;;;;;0.70;0.70;;;;;;;;;;5082692;28;20217;-84
2023/10/21 04:17:18;;;;;;;0.88;0.88;;;;;;;;;;5082375;28;20220;-85
2023/10/21 04:19:46;;;;;;;0.82;0.82;;;;;;;;;;5083504;28;20215;-85
2023/10/21 04:22:13;;;;;;;0.90;0.90;;;;;;;;;;5084725;28;20307;-84
2023/10/21 04:24:41;;;;;;;0.80;0.80;;;;;;;;;;5079954;28;20650;-84
2023/10/21 04:27:08;;;;;;;0.93;0.85;;;;;;;;;;5082850;28;20228;-85
2023/10/21 04:29:36;;;;;;;0.90;0.90;;;;;;;;;;5079971;28;20212;-86
2023/10/21 04:32:03;;;;;;;0.80;0.80;;;;;;;;;;5082363;28;20319;-85
2023/10/21 04:34:32;;;;;;;0.65;0.65;;;;;;;;;;5080671;28;20294;-84
2023/10/21 04:36:59;;;;;;;1.75;1.10;;;;;;;;;;5088057;28;20231;-84
2023/10/21 04:39:28;;;;;;;0.93;0.93;;;;;;;;;;5079513;28;20254;-84
2023/10/21 04:41:56;;;;;;;0.90;0.90;;;;;;;;;;5088014;28;20204;-85
2023/10/21 04:44:24;;;;;;;0.80;0.80;;;;;;;;;;5079626;28;20248;-84
2023/10/21 04:46:51;;;;;;;0.85;0.85;;;;;;;;;;5080526;28;20232;-85
2023/10/21 04:49:18;;;;;;;2.58;1.17;;;;;;;;;;5078409;28;20636;-85
2023/10/21 04:51:47;;;;;;;0.70;0.70;;;;;;;;;;5079300;28;20293;-85
2023/10/21 04:54:15;;;;;;;0.88;0.88;;;;;;;;;;5082281;28;20212;-84
2023/10/21 04:56:43;;;;;;;0.80;0.80;;;;;;;;;;5080625;28;20234;-85
2023/10/21 04:59:11;;;;;;;0.50;0.50;;;;;;;;;;5079464;28;20220;-84
2023/10/21 05:01:38;;;;;;;0.40;0.40;;;;;;;;;;5085771;28;20636;-84
2023/10/21 05:04:06;;;;;;;0.60;0.60;;;;;;;;;;5083093;28;20666;-84
2023/10/21 05:06:34;;;;;;;0.80;0.80;;;;;;;;;;5083869;28;20329;-84
2023/10/21 05:09:03;;;;;;;0.60;0.60;;;;;;;;;;5082990;28;20250;-84
2023/10/21 05:11:31;;;;;;;0.55;0.55;;;;;;;;;;5074935;28;20295;-84
2023/10/21 05:13:58;;;;;;;0.60;0.60;;;;;;;;;;5085862;28;20224;-85
2023/10/21 05:16:26;;;;;;;0.57;0.57;;;;;;;;;;5087033;28;20658;-84
2023/10/21 05:18:53;;;;;;;0.50;0.50;;;;;;;;;;5076818;28;20642;-84
2023/10/21 05:21:21;;;;;;;0.63;0.63;;;;;;;;;;5085745;28;20251;-84
2023/10/21 05:23:48;;;;;;;0.50;0.50;;;;;;;;;;5085588;28;20229;-85
2023/10/21 05:26:18;;;;;;;0.50;0.50;;;;;;;;;;5085576;28;20202;-85
2023/10/21 05:28:46;;;;;;;0.57;0.57;;;;;;;;;;5083545;28;20254;-86
2023/10/21 05:31:14;;;;;;;0.65;0.65;;;;;;;;;;5086181;28;20193;-85
2023/10/21 05:33:41;;;;;;;0.43;0.43;;;;;;;;;;5091863;28;20288;-86
2023/10/21 05:36:08;;;;;;;1.38;0.50;;;;;;;;;;5085172;28;20200;-84
2023/10/21 05:38:36;;;;;;;0.38;0.38;;;;;;;;;;5089787;28;20507;-85
2023/10/21 05:41:03;;;;;;;0.43;0.43;;;;;;;;;;5083121;28;20288;-84
2023/10/21 05:43:32;;;;;;;0.55;0.40;;;;;;;;;;5081889;28;20221;-86
2023/10/21 05:46:04;;;;;;;0.13;0.13;;;;;;;;;;5084334;28;20288;-84
2023/10/21 05:48:31;;;;;;;0.40;0.40;;;;;;;;;;5074683;28;20221;-85
2023/10/21 05:51:01;;;;;;;0.43;0.43;;;;;;;;;;5090054;28;20283;-85
2023/10/21 05:53:29;;;;;;;0.35;0.35;;;;;;;;;;5080192;28;20580;-86
2023/10/21 05:55:57;;;;;;;0.30;0.30;;;;;;;;;;5086555;28;20287;-85
2023/10/21 05:58:26;;;;;;;0.30;0.30;;;;;;;;;;5084726;28;20596;-86
2023/10/21 06:00:55;;;;;;;0.40;0.30;;;;;;;;;;5085039;28;20664;-86
2023/10/21 06:03:23;;;;;;;0.47;0.47;;;;;;;;;;5082796;28;20236;-86
2023/10/21 06:05:50;;;;;;;0.30;0.30;;;;;;;;;;5084003;28;20594;-86
2023/10/21 06:08:18;;;;;;;0.20;0.20;;;;;;;;;;5089194;28;20577;-86
2023/10/21 06:10:46;;;;;;;1.00;0.20;;;;;;;;;;5090685;28;20685;-86
2023/10/21 06:13:13;;;;;;;0.60;0.60;;;;;;;;;;5093382;28;20257;-87
2023/10/21 06:15:41;;;;;;;0.35;0.35;;;;;;;;;;5089395;28;20661;-86
2023/10/21 06:18:10;;;;;;;0.20;0.20;;;;;;;;;;5093258;28;20230;-86
2023/10/21 06:20:38;;;;;;;0.20;0.20;;;;;;;;;;5093879;28;20196;-86
2023/10/21 06:23:05;;;;;;;0.30;0.30;;;;;;;;;;5093126;28;20317;-86
2023/10/21 06:25:33;;;;;;;0.38;0.38;;;;;;;;;;5093132;28;20201;-85
2023/10/21 06:28:00;;;;;;;1.02;0.40;;;;;;;;;;5093252;28;20192;-86
2023/10/21 06:30:28;;;;;;;0.30;0.30;;;;;;;;;;5093388;28;20200;-87
2023/10/21 06:32:55;;;;;;;0.52;0.40;;;;;;;;;;5092938;28;20681;-86
2023/10/21 06:35:24;;;;;;;0.17;0.17;;;;;;;;;;5084695;28;20303;-85
2023/10/21 06:37:52;;;;;;;0.40;0.40;;;;;;;;;;5083706;28;20228;-86
2023/10/21 06:40:19;;;;;;;0.40;0.40;;;;;;;;;;5086374;28;20199;-87
2023/10/21 06:42:47;;;;;;;0.20;0.20;;;;;;;;;;5092814;28;20200;-87
2023/10/21 06:45:14;;;;;;;0.40;0.40;;;;;;;;;;5093216;28;20247;-84
2023/10/21 06:47:41;;;;;;;0.35;0.35;;;;;;;;;;5094152;28;20206;-87
2023/10/21 06:50:11;;;;;;;0.40;0.40;;;;;;;;;;5093883;28;20287;-87
2023/10/21 06:52:40;;;;;;;0.40;0.40;;;;;;;;;;5093370;28;20208;-86
2023/10/21 06:55:09;;;;;;;0.30;0.30;;;;;;;;;;5092815;28;20328;-87
2023/10/21 06:57:37;;;;;;;0.38;0.38;;;;;;;;;;5093200;28;20196;-86
2023/10/21 07:00:05;;;;;;;0.50;0.50;;;;;;;;;;5093082;28;20208;-87
2023/10/21 07:02:33;;;;;;;0.30;0.30;;;;;;;;;;5098113;28;20220;-86
2023/10/21 07:05:00;;;;;;;0.30;0.30;;;;;;;;;;5093229;28;20216;-85
2023/10/21 07:07:28;;;;;;;0.32;0.32;;;;;;;;;;5092106;28;20197;-87
2023/10/21 07:09:57;;;;;;;0.38;0.38;;;;;;;;;;5108455;28;20198;-87
2023/10/21 07:12:25;;;;;;;0.60;0.60;;;;;;;;;;5102449;28;20267;-87
2023/10/21 07:14:52;;;;;;;0.20;0.20;;;;;;;;;;5097638;28;20283;-87
2023/10/21 07:17:20;;;;;;;0.57;0.57;;;;;;;;;;5094304;28;20192;-87
2023/10/21 07:19:47;;;;;;;0.40;0.40;;;;;;;;;;5094538;28;20284;-87
2023/10/21 07:22:14;;;;;;;0.50;0.50;;;;;;;;;;5093354;28;20223;-87
2023/10/21 07:24:42;;;;;;;0.30;0.30;;;;;;;;;;5089756;28;20220;-87
2023/10/21 07:27:11;;;;;;;0.30;0.30;;;;;;;;;;5085975;28;20683;-86
2023/10/21 07:29:38;;;;;;;0.55;0.50;;;;;;;;;;5093341;28;20719;-86
2023/10/21 07:32:07;;;;;;;0.55;0.40;;;;;;;;;;5092872;28;20200;-85
2023/10/21 07:34:34;;;;;;;0.57;0.35;;;;;;;;;;5093263;28;20227;-88
2023/10/21 07:37:02;;;;;;;0.30;0.30;;;;;;;;;;5090944;28;20202;-88
2023/10/21 07:39:30;;;;;;;0.50;0.40;;;;;;;;;;5087683;28;20307;-86
2023/10/21 07:41:57;;;;;;;1.02;0.50;;;;;;;;;;5094599;28;20206;-87
2023/10/21 07:44:28;;;;;;;0.40;0.40;;;;;;;;;;5093951;28;20299;-87
2023/10/21 07:46:55;;;;;;;0.20;0.20;;;;;;;;;;5093118;28;20196;-86
2023/10/21 07:49:23;;;;;;;0.22;0.22;;;;;;;;;;5079177;28;20196;-86
2023/10/21 07:51:51;;;;;;;0.20;0.20;;;;;;;;;;5092658;28;20200;-86
2023/10/21 07:54:18;;;;;;;0.60;0.52;;;;;;;;;;5093142;28;20212;-86
2023/10/21 07:56:46;;;;;;;0.60;0.60;;;;;;;;;;5092886;28;20206;-86
2023/10/21 07:59:14;;;;;;;0.40;0.40;;;;;;;;;;5088262;28;20223;-86
2023/10/21 08:01:43;;;;;;;0.50;0.40;;;;;;;;;;5088650;28;20296;-86
2023/10/21 08:04:10;;;;;;;1.75;0.55;;;;;;;;;;5092951;28;20310;-87
2023/10/21 08:06:38;;;;;;;0.40;0.40;;;;;;;;;;5092356;28;20216;-86
2023/10/21 08:09:08;;;;;;;0.30;0.30;;;;;;;;;;5092185;28;20203;-88
2023/10/21 08:11:36;;;;;;;0.30;0.30;;;;;;;;;;5094672;28;20295;-86
2023/10/21 08:14:03;;;;;;;1.35;0.30;;;;;;;;;;5093068;28;20263;-86
2023/10/21 08:16:31;;;;;;;0.40;0.40;;;;;;;;;;5092974;28;20198;-87
2023/10/21 08:19:00;;;;;;;0.40;0.40;;;;;;;;;;5093334;28;20226;-88
2023/10/21 08:21:28;;;;;;;0.50;0.40;;;;;;;;;;5094409;28;20196;-85
2023/10/21 08:23:56;;;;;;;0.60;0.40;;;;;;;;;;5093679;28;20220;-87
2023/10/21 08:26:23;;;;;;;0.57;0.57;;;;;;;;;;5093661;28;20207;-87
2023/10/21 08:28:51;;;;;;;0.32;0.32;;;;;;;;;;5092786;28;20192;-87
2023/10/21 08:31:19;;;;;;;0.30;0.30;;;;;;;;;;5093063;28;20200;-87
2023/10/21 08:33:47;;;;;;;0.63;0.50;;;;;;;;;;5093155;28;20220;-85
2023/10/21 08:36:20;;;;;;;0.35;0.35;;;;;;;;;;5075122;28;20287;-86
2023/10/21 08:38:48;;;;;;;0.50;0.50;;;;;;;;;;5093111;28;20189;-85
2023/10/21 08:41:16;;;;;;;0.30;0.30;;;;;;;;;;5089007;28;20192;-87
2023/10/21 08:43:48;;;;;;;0.90;0.30;;;;;;;;;;5097105;28;20304;-87
2023/10/21 08:46:16;;;;;;;0.63;0.60;;;;;;;;;;5089320;28;20201;-86
2023/10/21 08:48:48;;;;;;;0.55;0.55;;;;;;;;;;5093302;28;20208;-85
2023/10/21 08:51:21;;;;;;;0.35;0.35;;;;;;;;;;5088693;28;20202;-87
2023/10/21 08:53:53;;;;;;;0.70;0.47;;;;;;;;;;5097004;28;20226;-86
2023/10/21 08:56:20;;;;;;;0.22;0.22;;;;;;;;;;5097043;28;20648;-87
2023/10/21 08:58:48;;;;;;;0.40;0.40;;;;;;;;;;5097266;28;20196;-87
2023/10/21 09:01:15;;;;;;;0.30;0.30;;;;;;;;;;5080961;28;20227;-87
2023/10/21 09:03:43;;;;;;;0.35;0.35;;;;;;;;;;5097674;28;20224;-87
2023/10/21 09:06:12;;;;;;;0.70;0.70;;;;;;;;;;5097250;28;20211;-87
2023/10/21 09:08:42;;;;;;;0.68;0.68;;;;;;;;;;5088349;28;20200;-87
2023/10/21 09:11:15;;;;;;;0.40;0.40;;;;;;;;;;5097310;28;20210;-88
2023/10/21 09:13:43;;;;;;;0.40;0.40;;;;;;;;;;5097471;28;20258;-88
2023/10/21 09:16:23;;;;;;;0.85;0.50;;;;;;;;;;5097927;28;20196;-86
2023/10/21 09:18:59;;;;;;;0.45;0.32;;;;;;;;;;5094839;28;20192;-86
2023/10/21 09:21:37;;;;;;;0.40;0.40;;;;;;;;;;5098524;28;20222;-86
2023/10/21 09:24:09;;;;;;;0.40;0.40;;;;;;;;;;5097749;28;20220;-86
2023/10/21 09:26:38;;;;;;;0.40;0.40;;;;;;;;;;5097483;28;20192;-88
2023/10/21 09:29:11;;;;;;;0.50;0.50;;;;;;;;;;5098193;28;20197;-86
2023/10/21 09:31:49;;;;;;;0.30;0.30;;;;;;;;;;5098061;28;20420;-87
2023/10/21 09:34:27;;;;;;;0.32;0.32;;;;;;;;;;5089515;28;20216;-88
2023/10/21 09:36:56;;;;;;;0.50;0.50;;;;;;;;;;5092849;28;20204;-86
2023/10/21 09:39:27;;;;;;;0.50;0.50;;;;;;;;;;5092350;28;20575;-87
2023/10/21 09:41:54;;;;;;;0.45;0.40;;;;;;;;;;5097239;28;20200;-88
2023/10/21 09:44:22;;;;;;;0.90;0.52;;;;;;;;;;5097317;28;20295;-87
2023/10/21 09:46:50;;;;;;;0.30;0.30;;;;;;;;;;5096856;28;20198;-88
2023/10/21 09:49:19;;;;;;;0.10;0.10;;;;;;;;;;5096591;28;20231;-87
2023/10/21 09:51:52;;;;;;;0.40;0.40;;;;;;;;;;5096868;28;20637;-88
2023/10/21 09:54:27;;;;;;;0.70;0.70;;;;;;;;;;5088445;28;20216;-87
2023/10/21 09:56:55;;;;;;;0.50;0.50;;;;;;;;;;5096759;28;20626;-87
2023/10/21 09:59:23;;;;;;;0.40;0.40;;;;;;;;;;5097261;28;20642;-89
2023/10/21 10:01:53;;;;;;;0.95;0.95;;;;;;;;;;5096117;28;20193;-87
2023/10/21 10:04:23;;;;;;;0.60;0.60;;;;;;;;;;5095437;28;20713;-88
2023/10/21 10:06:59;;;;;;;0.45;0.45;;;;;;;;;;5087149;28;20188;-88
2023/10/21 10:09:29;;;;;;;0.43;0.43;;;;;;;;;;5095227;28;20203;-89
2023/10/21 10:11:59;;;;;;;1.00;0.60;;;;;;;;;;5094722;28;20235;-89
2023/10/21 10:14:28;;;;;;;0.50;0.50;;;;;;;;;;5094680;28;20223;-88
2023/10/21 10:16:56;;;;;;;0.35;0.35;;;;;;;;;;5095369;28;20204;-87
2023/10/21 10:19:40;;;;;;;0.30;0.30;;;;;;;;;;5094095;28;20202;-89
2023/10/21 10:22:31;;;;;;;0.30;0.25;;;;;;;;;;5094571;28;20287;-88
2023/10/21 10:25:10;;;;;;;0.40;0.40;;;;;;;;;;5093923;28;20220;-88
2023/10/21 10:27:40;;;;;;;0.30;0.30;;;;;;;;;;5090271;28;20617;-89
2023/10/21 10:30:18;;;;;;;0.22;0.22;;;;;;;;;;5093995;28;20241;-87
2023/10/21 10:32:47;;;;;;;0.40;0.40;;;;;;;;;;5089569;28;20265;-87
2023/10/21 10:35:30;;;;;;;0.30;0.30;;;;;;;;;;5092567;28;20352;-86
2023/10/21 10:37:59;;;;;;;0.25;0.25;;;;;;;;;;5092647;28;20198;-88
2023/10/21 10:40:36;;;;;;;0.43;0.43;;;;;;;;;;5088821;28;20232;-87
2023/10/21 10:43:04;;;;;;;0.60;0.40;;;;;;;;;;5093222;28;20629;-88
2023/10/21 10:45:35;;;;;;;0.35;0.35;;;;;;;;;;5095967;28;20220;-88
2023/10/21 10:48:04;;;;;;;0.52;0.52;;;;;;;;;;5095240;28;20220;-89
2023/10/21 10:50:36;;;;;;;0.38;0.32;;;;;;;;;;5084401;28;20205;-89
2023/10/21 10:53:13;;;;;;;0.38;0.38;;;;;;;;;;5085013;28;20450;-89
2023/10/21 10:55:47;;;;;;;1.13;0.50;;;;;;;;;;5088474;28;20207;-87
2023/10/21 10:58:18;;;;;;;0.57;0.57;;;;;;;;;;5092891;28;20617;-88
2023/10/21 11:00:46;;;;;;;0.40;0.40;;;;;;;;;;5093077;28;20216;-89
2023/10/21 11:03:24;;;;;;;0.65;0.65;;;;;;;;;;5089149;28;20200;-87
2023/10/21 11:05:53;;;;;;;0.50;0.50;;;;;;;;;;5081169;28;20549;-87
2023/10/21 11:08:21;;;;;;;0.55;0.55;;;;;;;;;;5082424;28;20204;-87
2023/10/21 11:10:53;;;;;;;0.47;0.40;;;;;;;;;;5092869;28;20584;-87
2023/10/21 11:13:20;;;;;;;0.45;0.45;;;;;;;;;;5072539;28;20197;-88
2023/10/21 11:15:54;;;;;;;0.40;0.40;;;;;;;;;;5089646;28;20204;-87
2023/10/21 11:18:22;;;;;;;0.70;0.70;;;;;;;;;;5093303;28;20201;-87
2023/10/21 11:20:50;;;;;;;1.45;0.50;;;;;;;;;;5092932;28;20252;-88
2023/10/21 11:23:18;;;;;;;1.23;0.57;;;;;;;;;;5084490;28;20216;-88
2023/10/21 11:25:51;;;;;;;1.27;0.40;;;;;;;;;;5093158;28;20672;-89
2023/10/21 11:28:19;;;;;;;0.95;0.70;;;;;;;;;;5092119;28;20204;-88
2023/10/21 11:30:47;;;;;;;0.57;0.52;;;;;;;;;;5092516;28;20566;-88
2023/10/21 11:33:16;;;;;;;1.10;0.80;;;;;;;;;;5091984;28;20574;-87
2023/10/21 11:35:45;;;;;;;0.90;0.90;;;;;;;;;;5091960;28;20200;-88
2023/10/21 11:38:14;;;;;;;1.10;1.00;;;;;;;;;;5081686;28;20638;-89
2023/10/21 11:40:42;;;;;;;1.42;1.33;;;;;;;;;;5092335;28;20311;-88
2023/10/21 11:43:15;;;;;;;1.20;1.10;;;;;;;;;;5092057;28;20672;-88
2023/10/21 11:45:43;;;;;;;0.90;0.80;;;;;;;;;;5079235;28;20692;-88
2023/10/21 11:48:11;;;;;;;0.73;0.60;;;;;;;;;;5091572;28;20283;-87
2023/10/21 11:50:42;;;;;;;0.63;0.63;;;;;;;;;;5091796;28;20196;-88
2023/10/21 11:53:10;;;;;;;1.17;1.10;;;;;;;;;;5091443;28;20257;-88
2023/10/21 11:56:32;;;;;;;0.80;0.80;;;;;;;;;;5091979;28;20249;-86
2023/10/21 12:15:35;;;;;;;1.20;0.90;;;;;;;;;;5039488;28;20221;-88
2023/10/21 12:24:00;;;;;;;0.60;0.60;;;;;;;;;;5087298;28;20708;-87
2023/10/21 12:26:49;;;;;;;1.50;1.40;;;;;;;;;;5085454;28;20197;-88
2023/10/21 12:37:44;;;;;;;0.98;0.77;;;;;;;;;;5092178;28;20211;-89
2023/10/21 12:40:30;;;;;;;1.08;0.90;;;;;;;;;;5096248;28;20208;-89
2023/10/21 12:45:45;;;;;;;1.05;0.90;;;;;;;;;;5089066;28;20605;-89
2023/10/21 12:48:14;;;;;;;0.63;0.63;;;;;;;;;;5095660;28;20295;-88
2023/10/21 12:50:42;;;;;;;0.60;0.50;;;;;;;;;;5095624;28;20673;-88
2023/10/21 12:53:09;;;;;;;0.60;0.50;;;;;;;;;;5095169;28;20705;-89
2023/10/21 12:55:37;;;;;;;3.05;1.20;;;;;;;;;;5092225;28;20209;-89
2023/10/21 12:58:06;;;;;;;0.75;0.60;;;;;;;;;;5085345;28;20197;-89
2023/10/21 13:00:34;;;;;;;1.05;0.70;;;;;;;;;;5095115;28;20283;-89
2023/10/21 13:03:04;;;;;;;0.60;0.60;;;;;;;;;;5089441;28;20683;-89
2023/10/21 13:05:33;;;;;;;0.65;0.65;;;;;;;;;;5095257;28;20224;-89
2023/10/21 13:08:07;;;;;;;1.60;0.40;;;;;;;;;;5094306;28;20284;-88
2023/10/21 13:10:34;;;;;;;1.35;1.25;;;;;;;;;;5095084;28;20643;-88
2023/10/21 13:13:03;;;;;;;1.55;0.65;;;;;;;;;;5094942;28;20727;-89
2023/10/21 13:15:30;;;;;;;1.10;1.00;;;;;;;;;;5089384;28;20277;-88
2023/10/21 13:17:58;;;;;;;0.88;0.88;;;;;;;;;;5094564;28;20214;-88
2023/10/21 13:20:25;;;;;;;1.40;1.00;;;;;;;;;;5090591;28;20210;-89
2023/10/21 13:22:54;;;;;;;1.23;1.13;;;;;;;;;;5090926;28;20719;-89
2023/10/21 13:25:22;;;;;;;0.80;0.77;;;;;;;;;;5074518;28;20228;-89
2023/10/21 13:27:50;;;;;;;0.70;0.70;;;;;;;;;;5074663;28;20739;-88
2023/10/21 13:30:17;;;;;;;1.02;0.95;;;;;;;;;;5094164;28;20235;-89
2023/10/21 13:32:47;;;;;;;0.70;0.70;;;;;;;;;;5094721;28;20204;-88
2023/10/21 13:35:15;;;;;;;1.13;0.68;;;;;;;;;;5093936;28;20250;-89
2023/10/21 13:37:45;;;;;;;0.95;0.90;;;;;;;;;;5077907;28;20213;-89
2023/10/21 13:40:15;;;;;;;0.98;0.98;;;;;;;;;;5076980;28;20205;-89
2023/10/21 13:42:44;;;;;;;0.70;0.70;;;;;;;;;;5094625;28;20222;-88
2023/10/21 13:45:19;;;;;;;0.52;0.52;;;;;;;;;;5094476;28;20307;-88
2023/10/21 13:47:48;;;;;;;0.85;0.55;;;;;;;;;;5096246;28;20284;-90
2023/10/21 13:50:18;;;;;;;0.70;0.70;;;;;;;;;;5097125;28;20200;-89
2023/10/21 13:52:46;;;;;;;0.63;0.63;;;;;;;;;;5094518;28;20192;-88
2023/10/21 13:55:16;;;;;;;0.40;0.40;;;;;;;;;;5093933;28;20215;-89
2023/10/21 13:57:45;;;;;;;1.38;0.65;;;;;;;;;;5075880;28;20209;-88
2023/10/21 14:02:56;;;;;;;1.25;0.68;;;;;;;;;;5071538;28;20224;-89
2023/10/21 14:05:23;;;;;;;1.30;0.70;;;;;;;;;;5089830;28;20228;-89
2023/10/21 14:07:51;;;;;;;0.77;0.60;;;;;;;;;;5085960;28;20272;-89
2023/10/21 14:10:20;;;;;;;0.60;0.60;;;;;;;;;;5093923;28;20215;-89
2023/10/21 14:12:48;;;;;;;0.88;0.80;;;;;;;;;;5094102;28;20594;-89
2023/10/21 14:15:17;;;;;;;0.70;0.70;;;;;;;;;;5093766;28;20314;-89
2023/10/21 14:17:45;;;;;;;1.23;0.70;;;;;;;;;;5093589;28;20189;-88
2023/10/21 14:20:14;;;;;;;0.70;0.70;;;;;;;;;;5093784;28;20203;-87
2023/10/21 14:22:42;;;;;;;0.70;0.70;;;;;;;;;;5080325;28;20220;-88
2023/10/21 14:25:10;;;;;;;0.93;0.70;;;;;;;;;;5093414;28;20223;-88
2023/10/21 14:27:39;;;;;;;0.77;0.77;;;;;;;;;;5093970;28;20240;-90
2023/10/21 14:30:09;;;;;;;0.77;0.70;;;;;;;;;;5095313;28;20364;-89
2023/10/21 14:32:38;;;;;;;0.70;0.70;;;;;;;;;;5092999;28;20207;-87
2023/10/21 14:35:07;;;;;;;0.75;0.75;;;;;;;;;;5092837;28;20603;-88
2023/10/21 14:37:35;;;;;;;1.30;0.60;;;;;;;;;;5087346;28;20205;-89
2023/10/21 14:40:10;;;;;;;1.95;1.38;;;;;;;;;;5091147;28;20643;-89
2023/10/21 14:42:39;;;;;;;0.70;0.70;;;;;;;;;;5093399;28;20223;-89
2023/10/21 14:45:10;;;;;;;0.75;0.70;;;;;;;;;;5093129;28;20645;-88
2023/10/21 14:47:38;;;;;;;0.82;0.82;;;;;;;;;;5093301;28;20212;-89
2023/10/21 14:50:09;;;;;;;0.80;0.80;;;;;;;;;;5084830;28;20259;-88
2023/10/21 14:52:38;;;;;;;0.70;0.70;;;;;;;;;;5087560;28;20563;-89
2023/10/21 14:55:07;;;;;;;1.45;0.82;;;;;;;;;;5086920;28;20224;-89
2023/10/21 14:57:36;;;;;;;1.77;0.90;;;;;;;;;;5093045;28;21241;-89
2023/10/21 15:00:08;;;;;;;0.73;0.73;;;;;;;;;;5092914;28;20235;-89
2023/10/21 15:02:37;;;;;;;0.65;0.65;;;;;;;;;;5092996;28;20220;-88
2023/10/21 15:05:06;;;;;;;0.90;0.65;;;;;;;;;;5092724;28;20230;-88
2023/10/21 15:07:33;;;;;;;0.73;0.73;;;;;;;;;;5092339;28;20227;-88
2023/10/21 15:10:01;;;;;;;2.33;1.05;;;;;;;;;;5092731;28;20204;-88
2023/10/21 15:12:29;;;;;;;0.95;0.90;;;;;;;;;;5092881;28;20292;-89
2023/10/21 15:14:56;;;;;;;1.50;1.00;;;;;;;;;;5092366;28;20271;-88
2023/10/21 15:17:25;;;;;;;0.98;0.98;;;;;;;;;;5092246;28;20283;-90
2023/10/21 15:19:53;;;;;;;1.00;0.90;;;;;;;;;;5093133;28;20224;-90
2023/10/21 15:22:20;;;;;;;1.23;1.13;;;;;;;;;;5093190;28;20283;-89
2023/10/21 15:24:48;;;;;;;2.53;0.85;;;;;;;;;;5092334;28;20315;-89
2023/10/21 15:27:15;;;;;;;0.77;0.77;;;;;;;;;;5084576;28;20224;-88
2023/10/21 15:29:43;;;;;;;1.17;1.05;;;;;;;;;;5092344;28;20628;-89